Latest Weather Observations for Cessnock Airport

IDN60801

Issued at 9:32 pm EST Tuesday 4 August 2015 (issued every 30 minutes, with the page automatically refreshed every 10 minutes)

About weather observations | Map of weather stations | Latest weather observations for NSW | Other Formats
Station Details ID: 061260 Name: CESSNOCK AIRPORT AWS Lat: -32.79 Lon: 151.34 Height: 61.0 m
Data from the previous 72 hours. | See also: Recent months at Cessnock Airport
Date/Time
EST
Temp
°C
App
Temp
°C
Dew
Point
Rel
Hum
%
Delta-T
°C
Wind Press
QNH
hPa
Press
MSL
hPa
Rain
since 9 am
mm
Dir
 
Spd
km/h
Gust
km/h
Spd
kts
Gust
kts
04/09:30pm 7.9 4.1 -0.6 55 3.3 WNW 9 15 5 8 1018.7 1018.8 0.0
04/09:00pm 6.8 3.1 0.0 62 2.6 NW 9 15 5 8 1018.7 1018.8 0.0
04/08:30pm 7.0 3.0 0.2 62 2.7 NNW 11 17 6 9 1018.6 1018.7 0.0
04/08:00pm 4.7 1.5 1.0 77 1.4 NNW 7 9 4 5 1018.6 1018.7 0.0
04/07:30pm 3.2 0.2 1.1 86 0.8 NW 6 7 3 4 1018.5 1018.6 0.0
04/07:00pm 4.6 1.7 1.5 80 1.2 WSW 6 7 3 4 1018.5 1018.6 0.0
04/06:30pm 5.9 3.0 1.2 72 1.9 W 6 6 3 3 1018.6 1018.7 0.0
04/06:00pm 8.3 4.7 0.5 58 3.1 NW 9 11 5 6 1018.5 1018.6 0.0
04/05:30pm 10.7 7.4 -0.1 47 4.4 NNW 7 11 4 6 1018.2 1018.3 0.0
04/05:00pm 11.6 7.9 0.1 45 4.7 NW 9 13 5 7 1018.4 1018.5 0.0
04/04:30pm 12.7 8.3 0.5 43 5.1 NW 13 19 7 10 1018.2 1018.3 0.0
04/04:00pm 13.5 9.6 1.2 43 5.3 NW 11 20 6 11 1018.2 1018.3 0.0
04/03:30pm 13.2 9.3 1.2 44 5.1 NW 11 17 6 9 1018.5 1018.6 0.0
04/03:00pm 13.2 8.6 1.8 46 4.9 NNW 15 24 8 13 1018.8 1018.9 0.0
04/02:30pm 13.0 9.2 2.0 47 4.8 NW 11 19 6 10 1018.9 1019.0 0.0
04/02:00pm 14.0 9.2 2.6 46 5.0 NNW 17 26 9 14 1019.0 1019.1 0.0
04/01:30pm 13.8 11.0 2.1 45 5.1 NNE 6 20 3 11 1019.3 1019.4 0.0
04/01:00pm 13.2 8.6 1.8 46 4.9 NW 15 20 8 11 1019.8 1019.9 0.0
04/12:30pm 13.1 9.7 2.1 47 4.8 WSW 9 13 5 7 1020.2 1020.3 0.0
04/12:00pm 13.2 9.9 2.4 48 4.7 SW 9 13 5 7 1021.0 1021.1 0.0
04/11:30am 13.0 9.9 1.4 45 5.0 W 7 17 4 9 1021.5 1021.6 0.0
04/11:00am 13.4 10.6 2.0 46 4.9 SSW 6 9 3 5 1021.9 1022.0 0.0
04/10:30am 11.7 8.5 0.5 46 4.6 WSW 7 11 4 6 1022.1 1022.2 0.0
04/10:00am 11.4 8.3 1.6 51 4.1 WNW 7 15 4 8 1022.3 1022.4 0.0
04/09:30am 10.6 6.7 1.4 53 3.9 SW 11 19 6 10 1022.3 1022.4 0.0
04/09:00am 9.6 6.6 2.0 59 3.2 SSE 7 17 4 9 1022.2 1022.3 0.0
04/08:30am 7.1 4.5 4.2 82 1.3 ESE 7 9 4 5 1022.4 1022.5 0.0
04/08:00am 4.9 3.5 3.7 92 0.5 CALM 0 0 0 0 1022.1 1022.2 0.0
04/07:30am 3.2 1.6 2.5 95 0.3 CALM 0 0 0 0 1021.9 1022.0 0.0
04/07:00am 1.6 -0.3 0.7 94 0.3 CALM 0 0 0 0 1021.8 1021.9 0.0
04/06:30am 1.5 -0.5 0.2 91 0.5 CALM 0 0 0 0 1021.5 1021.6 0.0
04/06:00am 1.9 -0.4 0.7 92 0.4 SSE 2 7 1 4 1021.2 1021.3 0.0
04/05:30am 2.2 -0.9 0.3 87 0.7 S 6 7 3 4 1021.1 1021.2 0.0
04/05:00am 2.7 -0.4 1.4 91 0.5 SSE 7 9 4 5 1020.8 1020.9 0.0
04/04:30am 3.2 0.2 1.7 90 0.6 SW 7 13 4 7 1020.7 1020.8 0.0
04/04:00am 3.9 1.4 1.6 85 0.9 E 4 7 2 4 1020.7 1020.8 0.0
04/03:30am 4.8 1.0 1.5 79 1.3 S 11 13 6 7 1020.6 1020.7 0.0
04/03:00am 7.8 3.6 1.4 64 2.6 WSW 13 22 7 12 1020.5 1020.6 0.0
04/02:30am 5.0 2.0 2.0 81 1.2 WNW 7 9 4 5 1020.7 1020.8 0.0
04/02:00am 5.4 3.0 2.4 81 1.2 NE 4 7 2 4 1020.8 1020.9 0.0
04/01:30am 5.7 2.9 2.0 77 1.5 SW 6 9 3 5 1020.9 1021.0 0.0
04/01:00am 6.7 3.4 2.4 74 1.8 WSW 9 13 5 7 1020.9 1021.0 0.0
04/12:30am 7.4 3.7 2.1 69 2.2 SW 11 15 6 8 1020.9 1021.0 0.0
04/12:00am 8.6 5.3 2.2 64 2.7 WSW 9 13 5 7 1021.0 1021.1 0.0
 
Date/Time
EST
Temp
°C
App
Temp
°C
Dew
Point
Rel
Hum
%
Delta-T
°C
Wind Press
QNH
hPa
Press
MSL
hPa
Rain
since 9 am
mm
Dir
 
Spd
km/h
Gust
km/h
Spd
kts
Gust
kts
03/11:30pm 8.4 4.3 2.2 65 2.6 WSW 13 17 7 9 1020.8 1020.9 0.0
03/11:00pm 9.7 5.5 1.8 58 3.3 WSW 13 19 7 10 1020.8 1020.9 0.0
03/10:30pm 12.0 7.5 1.9 50 4.3 W 15 20 8 11 1020.8 1020.9 0.0
03/10:00pm 12.2 8.1 2.4 51 4.2 WNW 13 20 7 11 1020.7 1020.8 0.0
03/09:30pm 10.1 7.0 3.4 63 2.9 W 9 11 5 6 1020.8 1020.9 0.0
03/09:00pm 10.9 7.9 2.2 55 3.7 WSW 7 11 4 6 1020.5 1020.6 0.0
03/08:30pm 12.2 8.9 2.4 51 4.3 W 9 19 5 10 1020.3 1020.4 0.0
03/08:00pm 10.9 6.9 3.0 58 3.4 WSW 13 19 7 10 1020.0 1020.1 0.0
03/07:30pm 12.2 9.5 2.6 52 4.2 WNW 6 9 3 5 1019.6 1019.7 0.0
03/07:00pm 12.6 8.2 2.7 51 4.3 WSW 15 22 8 12 1018.6 1018.7 0.0
03/06:30pm 14.0 9.2 2.6 46 5.1 W 17 26 9 14 1018.1 1018.2 0.0
03/06:00pm 14.0 10.5 3.5 49 4.7 WNW 11 19 6 10 1017.4 1017.5 0.0
03/05:30pm 14.5 11.1 3.9 49 4.9 WNW 11 17 6 9 1016.6 1016.7 0.0
03/05:00pm 15.8 10.6 3.6 44 5.6 NW 20 32 11 17 1015.7 1015.7 0.0
03/04:30pm 16.6 11.4 3.6 42 6.0 NW 20 30 11 16 1015.1 1015.1 0.0
03/04:00pm 17.1 11.9 3.4 40 6.3 NW 20 37 11 20 1014.5 1014.5 0.0
03/03:30pm 17.5 12.3 3.4 39 6.6 NW 20 33 11 18 1014.2 1014.2 0.0
03/03:00pm 17.4 11.4 3.3 39 6.5 NW 24 35 13 19 1013.9 1013.9 0.0
03/02:30pm 17.7 12.5 3.6 39 6.6 NW 20 35 11 19 1013.7 1013.7 0.0
03/02:00pm 17.2 12.0 3.5 40 6.4 NNW 20 33 11 18 1013.8 1013.8 0.0
03/01:30pm 16.7 10.3 3.4 41 6.1 NW 26 43 14 23 1014.3 1014.3 0.0
03/01:00pm 16.4 10.4 3.5 42 6.0 NW 24 37 13 20 1014.5 1014.5 0.0
03/12:30pm 15.3 8.8 2.5 42 5.7 NW 26 39 14 21 1015.0 1015.0 0.0
03/12:00pm 15.6 10.0 3.4 44 5.6 NW 22 32 12 17 1015.4 1015.4 0.0
03/11:30am 14.9 8.6 3.7 47 5.1 NW 26 43 14 23 1015.7 1015.7 0.0
03/11:00am 13.6 7.5 2.8 48 4.8 NNW 24 37 13 20 1016.0 1016.0 0.0
03/10:30am 13.1 7.5 3.2 51 4.4 NNW 22 39 12 21 1016.4 1016.4 0.0
03/10:00am 12.3 7.2 3.0 53 4.1 NW 19 32 10 17 1016.8 1016.9 0.0
03/09:30am 11.4 5.7 2.9 56 3.7 NW 22 33 12 18 1016.8 1016.9 0.0
03/09:00am 10.7 5.5 3.5 61 3.2 NNW 20 35 11 19 1016.8 1016.9 0.0
03/08:30am 10.2 4.8 4.4 67 2.6 NW 22 35 12 19 1016.5 1016.6 0.0
03/08:00am 10.1 5.4 5.3 72 2.2 NNW 19 26 10 14 1016.1 1016.1 0.0
03/07:30am 9.9 6.5 6.1 77 1.8 NW 13 20 7 11 1015.8 1015.8 0.0
03/07:00am 9.9 5.8 6.4 79 1.6 NW 17 26 9 14 1015.2 1015.2 0.0
03/06:30am 10.2 6.6 6.7 79 1.6 WNW 15 20 8 11 1014.8 1014.8 0.0
03/06:00am 10.8 6.9 7.1 78 1.8 NW 17 24 9 13 1014.4 1014.4 0.0
03/05:30am 11.8 7.4 7.3 74 2.2 NW 20 33 11 18 1014.0 1014.0 0.0
03/05:00am 11.7 7.9 7.6 76 2.0 NW 17 28 9 15 1013.8 1013.8 0.0
03/04:30am 12.3 8.6 7.8 74 2.2 NW 17 28 9 15 1013.2 1013.2 0.0
03/04:00am 12.8 9.1 7.9 72 2.4 NW 17 26 9 14 1013.0 1013.0 0.0
03/03:30am 13.4 9.8 8.3 71 2.5 NW 17 30 9 16 1012.8 1012.8 0.0
03/03:00am 14.0 9.5 8.4 69 2.8 NW 22 33 12 18 1012.6 1012.6 0.0
03/02:30am 14.7 10.7 8.9 68 3.0 NW 20 32 11 17 1012.7 1012.7 0.0
03/02:00am 15.1 11.3 9.0 67 3.1 NW 19 28 10 15 1012.9 1012.9 0.0
03/01:30am 15.9 12.5 9.1 64 3.5 NW 17 26 9 14 1013.0 1013.0 0.0
03/01:00am 16.9 12.9 9.1 60 4.0 NW 20 33 11 18 1013.0 1013.0 0.0
03/12:30am 17.9 13.9 9.0 56 4.6 NW 20 33 11 18 1013.1 1013.1 0.0
03/12:00am 18.2 14.8 9.3 56 4.7 NW 17 26 9 14 1013.1 1013.1 0.0
 
Date/Time
EST
Temp
°C
App
Temp
°C
Dew
Point
Rel
Hum
%
Delta-T
°C
Wind Press
QNH
hPa
Press
MSL
hPa
Rain
since 9 am
mm
Dir
 
Spd
km/h
Gust
km/h
Spd
kts
Gust
kts
02/11:30pm 18.8 15.7 9.0 53 5.1 NW 15 20 8 11 1013.1 1013.1 0.0
02/11:00pm 19.7 16.7 9.3 51 5.5 NW 15 26 8 14 1013.2 1013.2 0.0
02/10:30pm 20.7 17.0 9.6 49 6.0 WNW 19 32 10 17 1013.2 1013.2 0.0
02/10:00pm 18.7 16.0 8.9 53 5.1 NW 13 19 7 10 1013.3 1013.3 0.0
02/09:30pm 18.7 15.9 8.4 51 5.3 NNW 13 19 7 10 1013.0 1013.0 0.0
02/09:00pm 18.9 16.5 8.6 51 5.4 NW 11 15 6 8 1013.1 1013.1 0.0
02/08:30pm 18.6 16.1 8.3 51 5.3 WNW 11 15 6 8 1013.3 1013.3 0.0
02/08:00pm 19.1 17.0 8.1 49 5.7 NW 9 13 5 7 1013.1 1013.1 0.0
02/07:30pm 19.9 17.4 8.3 47 6.0 NW 11 17 6 9 1013.0 1013.0 0.0
02/07:00pm 20.0 17.5 8.0 46 6.2 NW 11 15 6 8 1012.7 1012.7 0.0
02/06:30pm 19.8 17.3 8.2 47 6.0 NW 11 15 6 8 1012.4 1012.4 0.0
02/06:00pm 20.1 17.8 7.5 44 6.5 WNW 9 13 5 7 1011.9 1011.9 0.0
02/05:30pm 22.2 19.5 7.2 38 7.8 NW 11 19 6 10 1011.6 1011.6 0.0
02/05:00pm 23.4 20.3 7.1 35 8.5 NW 13 20 7 11 1011.3 1011.3 0.0
02/04:30pm 24.2 20.3 6.9 33 9.0 NW 17 28 9 15 1011.1 1011.1 0.0
02/04:00pm 24.5 20.2 7.2 33 9.1 NW 19 30 10 16 1011.0 1011.0 0.0
02/03:30pm 24.2 20.3 6.9 33 9.0 NW 17 30 9 16 1011.1 1011.1 0.0
02/03:00pm 24.9 20.3 6.6 31 9.5 NW 20 35 11 19 1011.2 1011.2 0.0
02/02:30pm 25.2 18.9 5.9 29 9.9 NW 28 39 15 21 1011.1 1011.1 0.0
02/02:00pm 25.8 18.7 5.4 27 10.5 NW 32 56 17 30 1011.0 1011.0 0.0
02/01:31pm 25.6 19.2 5.2 27 10.4 NW 28 48 15 26 1011.2 1011.2 0.0
02/01:30pm 25.7 19.8 5.8 28 10.3 NW 26 46 14 25 1011.2 1011.2 0.0
02/01:18pm 25.3 18.9 5.0 27 10.3 NW 28 46 15 25 1011.4 1011.4 0.0
02/01:00pm 25.9 20.0 6.0 28 10.3 NW 26 52 14 28 1011.8 1011.8 0.0
02/12:30pm 25.1 17.3 4.8 27 10.2 NNW 35 57 19 31 1012.2 1012.2 0.0
02/12:00pm 25.0 19.0 7.2 32 9.4 NW 28 46 15 25 1012.7 1012.7 0.0
02/11:54am 24.4 18.2 6.2 31 9.4 NW 28 46 15 25 1012.9 1012.9 0.0
02/11:30am 23.6 18.6 6.4 33 8.8 NW 22 37 12 20 1013.6 1013.6 0.0
02/11:00am 22.7 17.0 6.5 35 8.3 NW 26 46 14 25 1014.4 1014.4 0.0
02/10:58am 22.5 16.2 5.9 34 8.4 NW 28 46 15 25 1014.4 1014.4 0.0
02/10:30am 21.7 16.1 5.6 35 8.1 NW 24 43 13 23 1014.9 1014.9 0.0
02/10:00am 20.4 14.5 5.6 38 7.3 NNW 26 39 14 21 1015.1 1015.1 0.0
02/09:30am 19.6 14.4 5.6 40 6.9 NNW 22 35 12 19 1015.4 1015.4 0.0
02/09:00am 15.2 12.3 8.2 63 3.5 NE 13 15 7 8 1015.8 1015.8 0.0
02/08:30am 12.5 10.6 7.6 72 2.4 ENE 7 9 4 5 1016.1 1016.1 0.0
02/08:00am 9.6 8.0 7.9 89 0.8 E 6 7 3 4 1016.0 1016.0 0.0
02/07:30am 6.4 5.4 5.7 95 0.3 CALM 0 0 0 0 1016.0 1016.0 0.0
02/07:00am 5.1 3.8 4.2 94 0.4 CALM 0 0 0 0 1015.9 1015.9 0.0
02/06:30am 5.6 4.4 4.7 94 0.4 CALM 0 0 0 0 1016.0 1016.0 0.0
02/06:00am 5.5 4.2 4.3 92 0.5 CALM 0 6 0 3 1016.2 1016.2 0.0
02/05:30am 6.2 5.0 4.8 91 0.6 CALM 0 0 0 0 1016.1 1016.1 0.0
02/05:00am 6.8 5.7 5.3 90 0.7 CALM 0 0 0 0 1016.1 1016.1 0.0
02/04:30am 7.0 5.9 5.2 88 0.8 CALM 0 0 0 0 1016.3 1016.3 0.0
02/04:00am 7.4 6.4 5.4 87 0.9 CALM 0 0 0 0 1016.3 1016.3 0.0
02/03:30am 7.8 6.8 5.4 85 1.1 CALM 0 0 0 0 1016.4 1016.4 0.0
02/03:00am 8.8 7.9 6.1 83 1.2 CALM 0 0 0 0 1016.5 1016.6 0.0
02/02:30am 9.4 7.8 6.3 81 1.4 N 4 6 2 3 1016.7 1016.8 0.0
02/02:00am 10.2 8.9 5.8 74 2.0 NNW 2 6 1 3 1016.8 1016.9 0.0
02/01:30am 12.0 9.4 6.1 67 2.8 NW 9 9 5 5 1016.8 1016.9 0.0
02/01:00am 14.1 11.4 5.7 57 4.0 NNW 9 15 5 8 1016.7 1016.8 0.0
02/12:30am 15.1 12.1 5.9 54 4.4 NW 11 15 6 8 1017.0 1017.1 0.0
02/12:00am 16.3 12.5 5.9 50 5.0 NW 15 20 8 11 1017.4 1017.5 0.0
 
Date/Time
EST
Temp
°C
App
Temp
°C
Dew
Point
Rel
Hum
%
Delta-T
°C
Wind Press
QNH
hPa
Press
MSL
hPa
Rain
since 9 am
mm
Dir
 
Spd
km/h
Gust
km/h
Spd
kts
Gust
kts
01/11:30pm 16.1 12.7 6.0 51 4.9 NW 13 17 7 9 1017.6 1017.7 0.0
01/11:00pm 17.4 13.3 6.0 47 5.6 NW 17 22 9 12 1017.5 1017.6 0.0
01/10:30pm 17.0 13.3 6.2 49 5.3 NNW 15 20 8 11 1017.6 1017.7 0.0
01/10:00pm 17.5 14.2 6.4 48 5.5 NW 13 19 7 10 1017.9 1018.0 0.0

Other Formats:

Comma delimited format used in spreadsheet applications
http://www.bom.gov.au/fwo/IDN60801/IDN60801.95771.axf

JavaScript Object Notation format (JSON) in row-major order
http://www.bom.gov.au/fwo/IDN60801/IDN60801.95771.json